Latest Weather Observations for Low Head

IDT60801

Issued at 10:35 am EDT Sunday 23 November 2014 (issued every 30 minutes, with the page automatically refreshed every 10 minutes)

About weather observations | Map of weather stations | Latest weather observations for TAS | Other Formats
Station Details ID: 091293 Name: LOW HEAD Lat: -41.05 Lon: 146.79 Height: 3.0 m
Data from the previous 72 hours. | See also: Recent months at Low Head
Date/Time
EDT
Temp
°C
App
Temp
°C
Dew
Point
Rel
Hum
%
Delta-T
°C
Wind Press
QNH
hPa
Press
MSL
hPa
Rain
since 9 am
mm
Dir
 
Spd
km/h
Gust
km/h
Spd
kts
Gust
kts
23/10:30am 16.0 10.0 10.1 68 3.1 WNW 32 37 17 20 1010.4 - 0.0
23/10:00am 15.9 9.8 10.4 70 2.9 WNW 33 39 18 21 1009.9 - 0.0
23/09:30am 15.4 9.2 10.1 70 2.8 W 33 37 18 20 1009.7 - 0.0
23/09:00am 15.0 8.8 10.0 72 2.6 W 33 39 18 21 1009.8 1009.7 1.2
23/08:30am 14.9 8.8 10.5 75 2.3 W 33 39 18 21 1009.4 - 1.2
23/08:00am 14.9 8.8 10.5 75 2.3 W 33 39 18 21 1009.0 - 1.2
23/07:30am 14.6 8.4 10.2 75 2.3 W 33 39 18 21 1008.5 - 1.2
23/07:00am 14.5 8.7 10.7 78 2.0 W 32 39 17 21 1007.9 - 1.2
23/06:30am 14.6 9.3 11.4 81 1.7 W 30 35 16 19 1007.3 - 1.2
23/06:00am 14.4 8.4 12.0 85 1.3 W 35 41 19 22 1006.5 1006.5 1.2
23/05:30am 14.6 8.3 12.4 87 1.2 W 37 46 20 25 1006.0 - 1.2
23/05:00am 14.6 9.3 12.4 87 1.2 W 32 37 17 20 1005.8 - 1.2
23/04:30am 14.5 9.7 12.9 90 0.9 WNW 30 33 16 18 1005.5 - 1.2
23/04:00am 14.7 9.8 12.7 88 1.1 W 30 35 16 19 1005.5 - 1.2
23/03:30am 14.6 11.4 13.0 90 0.9 W 22 28 12 15 1005.3 - 1.2
23/03:00am 14.2 10.9 12.9 92 0.7 W 22 30 12 16 1005.3 1005.3 1.0
23/02:30am 14.0 13.6 12.9 93 0.6 SW 7 9 4 5 1005.1 - 1.0
23/02:00am 14.0 13.1 12.7 92 0.7 S 9 9 5 5 1004.6 - 1.0
23/01:30am 14.1 13.3 13.0 93 0.6 S 9 11 5 6 1004.8 - 1.0
23/01:00am 14.3 13.2 13.0 92 0.7 S 11 15 6 8 1004.9 - 1.0
23/12:30am 14.7 14.4 13.3 91 0.8 ESE 7 13 4 7 1005.0 - 0.8
23/12:00am 14.6 12.8 13.2 91 0.8 SSE 15 17 8 9 1004.7 1004.7 0.2
 
Date/Time
EDT
Temp
°C
App
Temp
°C
Dew
Point
Rel
Hum
%
Delta-T
°C
Wind Press
QNH
hPa
Press
MSL
hPa
Rain
since 9 am
mm
Dir
 
Spd
km/h
Gust
km/h
Spd
kts
Gust
kts
22/11:30pm 14.7 13.1 12.7 88 1.1 SSE 13 17 7 9 1005.0 - 0.0
22/11:00pm 15.1 14.2 12.7 85 1.3 ESE 9 15 5 8 1005.9 - 0.0
22/10:30pm 14.8 13.9 12.6 87 1.2 SSE 9 11 5 6 1006.1 - 0.0
22/10:00pm 15.2 14.1 13.0 87 1.2 ENE 11 13 6 7 1006.2 - 0.0
22/09:30pm 15.0 13.6 12.3 84 1.5 SE 11 13 6 7 1006.0 - 0.0
22/09:00pm 15.2 14.3 12.7 85 1.4 E 9 11 5 6 1005.8 1005.8 0.0
22/08:30pm 15.8 15.3 12.7 82 1.7 E 7 11 4 6 1006.0 - 0.0
22/08:00pm 16.0 13.7 13.1 83 1.6 ENE 17 17 9 9 1005.8 - 0.0
22/07:30pm 15.9 13.2 13.0 83 1.6 ENE 19 20 10 11 1005.9 - 0.0
22/07:00pm 16.1 13.4 12.9 81 1.8 ENE 19 20 10 11 1006.1 - 0.0
22/06:30pm 16.0 13.7 12.9 82 1.7 NE 17 20 9 11 1006.6 - 0.0
22/06:00pm 16.3 13.3 12.7 79 2.0 ENE 20 20 11 11 1006.5 1006.5 0.0
22/05:30pm 16.6 13.8 12.6 77 2.2 ENE 19 22 10 12 1006.3 - 0.0
22/05:00pm 16.3 12.8 12.3 77 2.2 ENE 22 26 12 14 1006.6 - 0.0
22/04:30pm 16.3 12.9 12.5 78 2.1 ENE 22 26 12 14 1006.9 - 0.0
22/04:00pm 15.6 13.2 12.5 82 1.7 ENE 17 20 9 11 1007.6 - 0.0
22/03:30pm 15.7 13.3 12.8 83 1.6 ENE 17 19 9 10 1008.1 - 0.0
22/03:00pm 16.3 14.6 12.5 78 2.1 NE 13 17 7 9 1008.6 1008.6 0.0
22/02:30pm 15.7 12.8 12.4 81 1.8 NE 19 20 10 11 1008.3 - 0.0
22/02:00pm 15.3 12.6 12.8 85 1.4 ENE 19 22 10 12 1008.7 - 0.0
22/01:30pm 15.3 12.6 12.8 85 1.4 NE 19 20 10 11 1009.6 - 0.0
22/01:00pm 15.3 11.5 12.4 83 1.6 NE 24 26 13 14 1009.3 - 0.0
22/12:30pm 15.5 11.8 12.6 83 1.6 ENE 24 26 13 14 1009.4 - 0.0
22/12:00pm 15.5 12.5 12.4 82 1.7 ENE 20 24 11 13 1009.9 1009.9 0.0
22/11:30am 15.4 11.9 12.3 82 1.7 ENE 22 24 12 13 1010.2 - 0.0
22/11:00am 14.6 11.6 12.4 87 1.2 ENE 20 22 11 12 1010.6 - 0.0
22/10:30am 14.7 11.5 11.9 83 1.5 NE 20 22 11 12 1010.9 - 0.0
22/10:00am 14.2 11.0 11.8 85 1.3 NE 20 22 11 12 1010.9 - 0.0
22/09:30am 14.4 11.7 11.8 84 1.4 NE 17 19 9 10 1011.1 - 0.0
22/09:00am 14.8 13.3 11.8 82 1.6 NNE 11 13 6 7 1011.1 1011.1 0.0
22/08:30am 14.6 13.0 11.4 81 1.7 N 11 13 6 7 1011.2 - 0.0
22/08:00am 14.5 12.5 11.5 82 1.6 NNW 13 19 7 10 1011.4 - 0.0
22/07:30am 14.1 11.2 11.1 82 1.6 N 17 20 9 11 1011.2 - 0.0
22/07:00am 13.6 11.4 10.7 82 1.5 N 13 15 7 8 1011.4 - 0.0
22/06:30am 11.2 8.8 8.6 84 1.3 E 11 13 6 7 1011.1 - 0.0
22/06:00am 10.9 8.4 8.0 82 1.4 E 11 13 6 7 1010.5 1010.6 0.0
22/05:30am 12.8 10.5 9.0 78 1.9 NNW 11 15 6 8 1010.3 - 0.0
22/05:00am 12.8 9.3 8.6 75 2.1 NW 17 20 9 11 1010.1 - 0.0
22/04:30am 11.9 10.3 8.7 81 1.6 N 7 17 4 9 1009.9 - 0.0
22/04:00am 11.1 9.6 8.5 84 1.3 ENE 6 7 3 4 1009.6 - 0.0
22/03:30am 11.4 10.7 8.4 82 1.5 N 2 7 1 4 1009.6 - 0.0
22/03:00am 12.5 10.2 7.6 72 2.4 WNW 9 11 5 6 1009.3 1009.3 0.0
22/02:30am 12.8 9.8 7.5 70 2.6 W 13 13 7 7 1009.7 - 0.0
22/02:00am 13.3 9.3 8.1 71 2.6 W 19 20 10 11 1010.3 - 0.0
22/01:30am 13.4 8.1 8.4 72 2.5 W 26 32 14 17 1011.0 - 0.0
22/01:00am 13.5 6.7 7.8 68 2.8 W 33 39 18 21 1011.3 - 0.0
22/12:30am 13.7 7.3 8.5 71 2.6 W 32 39 17 21 1011.1 - 0.0
22/12:00am 14.0 8.4 8.6 70 2.7 W 28 32 15 17 1011.3 1011.3 0.0
 
Date/Time
EDT
Temp
°C
App
Temp
°C
Dew
Point
Rel
Hum
%
Delta-T
°C
Wind Press
QNH
hPa
Press
MSL
hPa
Rain
since 9 am
mm
Dir
 
Spd
km/h
Gust
km/h
Spd
kts
Gust
kts
21/11:30pm 14.1 8.1 8.8 70 2.7 W 30 35 16 19 1011.3 - 0.0
21/11:00pm 14.3 7.7 8.5 68 2.9 W 33 37 18 20 1011.1 - 0.0
21/10:30pm 14.3 7.7 9.9 75 2.3 W 35 41 19 22 1011.2 - 0.0
21/10:00pm 14.2 7.1 9.5 73 2.4 WNW 37 44 20 24 1011.2 - 0.0
21/09:30pm 14.4 7.7 9.5 72 2.5 WNW 35 43 19 23 1010.8 - 0.0
21/09:00pm 14.4 6.4 9.1 70 2.7 WNW 41 48 22 26 1010.4 1010.4 0.0
21/08:30pm 14.5 6.9 9.2 70 2.7 WNW 39 46 21 25 1010.3 - 0.0
21/08:00pm 14.7 6.4 9.2 69 2.8 WNW 43 50 23 27 1009.7 - 0.0
21/07:30pm 15.0 7.1 9.4 69 2.9 NW 41 48 22 26 1009.4 - 0.0
21/07:00pm 15.3 7.3 9.1 66 3.2 NW 41 46 22 25 1008.8 - 0.0
21/06:30pm 15.6 8.0 9.2 65 3.3 NW 39 44 21 24 1008.3 - 0.0
21/06:00pm 15.8 7.7 8.5 62 3.7 WNW 41 50 22 27 1008.1 1008.2 0.0
21/05:30pm 16.0 7.6 8.8 62 3.7 WNW 43 54 23 29 1008.0 - 0.0
21/05:00pm 16.2 7.6 8.8 61 3.8 WNW 44 54 24 29 1007.6 - 0.0
21/04:30pm 16.8 8.8 9.1 60 4.0 WNW 41 46 22 25 1007.2 - 0.0
21/04:00pm 16.8 8.8 9.1 60 4.0 WNW 41 48 22 26 1007.2 - 0.0
21/03:30pm 17.1 10.0 9.5 61 4.0 WNW 37 44 20 24 1007.0 - 0.0
21/03:00pm 16.8 8.3 9.1 60 4.0 WNW 44 50 24 27 1006.7 1006.6 0.0
21/02:30pm 16.8 9.3 9.3 61 3.9 WNW 39 46 21 25 1006.6 - 0.0
21/02:00pm 16.8 10.1 9.5 62 3.8 WNW 35 43 19 23 1006.4 - 0.0
21/01:30pm 16.0 7.9 9.9 67 3.2 W 43 48 23 26 1006.3 - 0.0
21/01:00pm 15.9 9.0 10.2 69 3.0 WNW 37 46 20 25 1006.2 - 0.0
21/12:30pm 15.5 8.1 9.7 68 3.0 W 39 44 21 24 1005.8 - 0.0
21/12:00pm 15.0 7.4 9.2 68 3.0 W 39 44 21 24 1005.5 1005.6 0.0
21/11:30am 15.2 7.0 9.6 69 2.9 WNW 43 52 23 28 1005.5 - 0.0
21/11:00am 14.5 8.1 10.7 78 2.0 W 35 43 19 23 1005.1 - 0.0
21/10:30am 14.8 7.7 10.8 77 2.1 W 39 46 21 25 1004.9 - 0.0
21/10:00am 14.9 8.3 11.4 79 1.9 W 37 44 20 24 1004.5 - 0.0
21/09:30am 14.7 7.5 11.9 83 1.5 WNW 41 48 22 26 1004.5 - 0.0
21/09:00am 14.8 7.6 12.0 83 1.5 WNW 41 48 22 26 1004.0 1003.9 13.4
21/08:30am 14.8 8.0 12.0 83 1.5 W 39 46 21 25 1003.5 - 13.4
21/08:00am 14.7 8.9 12.7 88 1.1 WNW 35 41 19 22 1003.0 - 13.4
21/07:30am 14.6 9.7 12.4 87 1.2 W 30 35 16 19 1002.4 - 13.4
21/07:00am 14.6 10.5 12.8 89 1.0 WNW 26 33 14 18 1002.3 - 13.4
21/06:30am 14.4 9.3 13.0 91 0.8 WNW 32 35 17 19 1002.2 - 13.4
21/06:00am 14.3 9.6 13.2 93 0.6 WNW 30 35 16 19 1001.6 1001.6 13.4
21/05:30am 14.4 10.1 13.3 93 0.6 WNW 28 33 15 18 1001.2 - 13.4
21/05:00am 14.4 9.4 13.3 93 0.6 WNW 32 35 17 19 1000.9 - 13.2
21/04:30am 14.5 10.3 13.4 93 0.6 WNW 28 32 15 17 1001.0 - 13.2
21/04:00am 14.5 10.2 13.2 92 0.7 WNW 28 32 15 17 1000.7 - 13.2
21/03:30am 14.4 9.7 13.3 93 0.6 WNW 30 33 16 18 1000.6 - 13.2
21/03:00am 14.5 10.3 13.4 93 0.6 WNW 28 33 15 18 1001.0 1001.0 13.2
21/02:30am 14.6 11.6 13.7 94 0.5 WNW 22 26 12 14 1000.8 - 13.2
21/02:00am 14.6 11.3 13.9 96 0.4 NW 24 30 13 16 1001.2 - 13.2
21/01:30am 14.7 11.1 14.2 97 0.3 NW 26 32 14 17 1001.6 - 13.2
21/01:00am 14.8 10.5 14.3 97 0.3 WNW 30 35 16 19 1002.0 - 13.2
21/12:30am 15.0 11.9 14.5 97 0.3 NW 24 30 13 16 1002.3 - 10.0
21/12:00am 15.0 12.8 14.5 97 0.3 NW 19 20 10 11 1002.4 1002.4 9.4
 
Date/Time
EDT
Temp
°C
App
Temp
°C
Dew
Point
Rel
Hum
%
Delta-T
°C
Wind Press
QNH
hPa
Press
MSL
hPa
Rain
since 9 am
mm
Dir
 
Spd
km/h
Gust
km/h
Spd
kts
Gust
kts
20/11:30pm 15.1 12.7 14.4 96 0.4 NW 20 24 11 13 1002.6 - 9.4
20/11:00pm 15.0 12.5 14.1 94 0.5 N 20 22 11 12 1003.0 - 9.4
20/10:30pm 14.8 12.4 14.3 97 0.3 NNE 20 24 11 13 1003.3 - 9.4
20/10:00pm 14.7 12.7 14.0 96 0.4 NNE 17 19 9 10 1003.5 - 8.4
20/09:30pm 14.7 14.3 14.0 96 0.4 NNE 9 13 5 7 1003.9 - 6.8
20/09:00pm 14.7 13.1 13.8 94 0.5 N 15 17 8 9 1004.1 1004.0 6.0
20/08:30pm 14.8 13.9 13.7 93 0.6 N 11 11 6 6 1003.8 - 5.4
20/08:00pm 14.6 15.0 13.7 94 0.5 NNW 4 6 2 3 1004.0 - 5.4
20/07:30pm 14.6 13.7 13.7 94 0.5 NNE 11 17 6 9 1004.3 - 5.2
20/07:00pm 14.5 12.0 13.6 94 0.5 NNE 19 20 10 11 1003.7 - 4.8
20/06:30pm 14.6 12.8 13.3 92 0.7 N 15 17 8 9 1003.8 - 3.8
20/06:00pm 14.9 11.0 13.3 90 0.9 NNW 26 33 14 18 1004.7 1004.6 3.0
20/05:30pm 15.3 11.4 13.3 88 1.1 NNW 26 30 14 16 1004.5 - 1.6
20/05:00pm 15.6 11.3 13.1 85 1.4 NNW 28 33 15 18 1004.3 - 0.8
20/04:30pm 15.5 11.3 13.4 87 1.2 N 28 30 15 16 1004.0 - 0.6
20/04:00pm 15.4 10.4 13.3 87 1.2 NNE 32 35 17 19 1003.5 - 0.4
20/03:30pm 15.4 13.2 13.4 88 1.1 ENE 17 19 9 10 1003.5 - 0.2
20/03:00pm 15.2 11.7 13.4 89 1.0 NE 24 30 13 16 1003.2 1003.2 0.2
20/02:30pm 15.5 14.1 13.4 87 1.2 ENE 13 17 7 9 1003.6 - 0.2
20/02:00pm 15.5 12.7 12.6 83 1.6 NE 19 28 10 15 1003.9 - 0.2
20/01:30pm 15.8 12.3 12.3 80 1.9 NE 22 28 12 15 1004.1 - 0.0
20/01:00pm 15.4 10.9 12.5 83 1.6 N 28 33 15 18 1004.7 - 0.0
20/12:30pm 17.4 15.4 12.7 74 2.6 E 15 20 8 11 1004.4 - 0.0
20/12:00pm 16.6 13.7 12.4 76 2.3 E 19 24 10 13 1004.8 1004.9 0.0
20/11:30am 16.0 13.3 12.9 82 1.7 ENE 19 20 10 11 1005.6 - 0.0
20/11:00am 16.6 17.4 12.4 76 2.3 CALM 0 6 0 3 1007.1 - 0.0

Other Formats:

Comma delimited format used in spreadsheet applications
http://www.bom.gov.au/fwo/IDT60801/IDT60801.95964.axf

JavaScript Object Notation format (JSON) in row-major order
http://www.bom.gov.au/fwo/IDT60801/IDT60801.95964.json